createdAt,value
2023-01-29T00:01:52.682Z,14.15
2023-01-29T00:04:19.686Z,14.15
2023-01-29T00:06:46.349Z,14.14
2023-01-29T00:09:13.633Z,14.12
2023-01-29T00:11:40.508Z,14.12
2023-01-29T00:14:07.979Z,14.10
2023-01-29T00:16:34.604Z,14.10
2023-01-29T00:19:02.349Z,14.07
2023-01-29T00:21:31.110Z,14.09
2023-01-29T00:23:58.551Z,14.09
2023-01-29T00:26:25.767Z,14.08
2023-01-29T00:28:52.365Z,14.08
2023-01-29T00:31:21.836Z,14.09
2023-01-29T00:33:49.491Z,14.10
2023-01-29T00:36:17.667Z,14.12
2023-01-29T00:38:44.347Z,14.13
2023-01-29T00:41:32.281Z,14.14
2023-01-29T00:44:18.110Z,14.14
2023-01-29T00:46:44.926Z,14.14
2023-01-29T00:49:11.889Z,14.14
2023-01-29T00:51:39.370Z,14.16
2023-01-29T00:54:06.879Z,14.15
2023-01-29T00:56:35.815Z,14.14
2023-01-29T00:59:03.130Z,14.14
2023-01-29T01:01:48.614Z,14.14
2023-01-29T01:04:15.213Z,14.14
2023-01-29T01:06:42.455Z,14.13
2023-01-29T01:09:28.544Z,14.12
2023-01-29T01:11:55.410Z,14.13
2023-01-29T01:14:22.016Z,14.11
2023-01-29T01:16:49.192Z,14.12
2023-01-29T01:19:16.282Z,14.09
2023-01-29T01:21:48.177Z,14.12
2023-01-29T01:24:15.208Z,14.12
2023-01-29T01:26:41.954Z,14.10
2023-01-29T01:29:09.201Z,14.08
2023-01-29T01:31:35.941Z,14.08
2023-01-29T01:34:02.612Z,14.08
2023-01-29T01:36:29.214Z,14.08
2023-01-29T01:38:55.800Z,14.09
2023-01-29T01:41:23.276Z,14.10
2023-01-29T01:43:52.552Z,14.10
2023-01-29T01:46:19.846Z,14.12
2023-01-29T01:48:51.397Z,14.13
2023-01-29T01:51:18.739Z,14.13
2023-01-29T01:53:53.059Z,14.15
2023-01-29T01:56:24.875Z,14.15
2023-01-29T01:58:55.673Z,14.14
2023-01-29T02:01:30.215Z,14.16
2023-01-29T02:04:26.616Z,14.15
2023-01-29T02:07:12.305Z,14.15
2023-01-29T02:09:49.082Z,14.15
2023-01-29T02:12:16.510Z,14.15
2023-01-29T02:14:43.619Z,14.15
2023-01-29T02:17:16.010Z,14.14
2023-01-29T02:20:07.457Z,14.14
2023-01-29T02:22:56.130Z,14.12
2023-01-29T02:25:31.447Z,14.11
2023-01-29T02:28:07.194Z,14.11
2023-01-29T02:30:37.904Z,14.09
2023-01-29T02:33:11.133Z,14.08
2023-01-29T02:35:46.891Z,14.08
2023-01-29T02:38:21.824Z,14.08
2023-01-29T02:40:57.556Z,14.05
2023-01-29T02:43:45.523Z,14.05
2023-01-29T02:46:22.062Z,14.07
2023-01-29T02:48:54.755Z,14.06
2023-01-29T02:51:36.174Z,14.07
2023-01-29T02:54:40.020Z,14.09
2023-01-29T02:57:18.612Z,14.10
2023-01-29T03:00:07.237Z,14.08
2023-01-29T03:02:38.500Z,14.13
2023-01-29T03:05:11.060Z,14.13
2023-01-29T03:07:41.244Z,14.12
2023-01-29T03:10:18.031Z,14.14
2023-01-29T03:12:47.957Z,14.14
2023-01-29T03:15:26.732Z,14.15
2023-01-29T03:18:03.736Z,14.15
2023-01-29T03:20:33.485Z,14.14
2023-01-29T03:23:12.080Z,14.15
2023-01-29T03:25:58.159Z,14.15
2023-01-29T03:28:43.936Z,14.14
2023-01-29T03:31:30.986Z,14.14
2023-01-29T03:34:16.264Z,14.15
2023-01-29T03:36:56.140Z,14.13
2023-01-29T03:39:25.404Z,14.12
2023-01-29T03:41:59.518Z,14.12
2023-01-29T03:44:37.113Z,14.10
2023-01-29T03:47:13.833Z,14.10
2023-01-29T03:50:03.675Z,14.08
2023-01-29T03:52:50.216Z,14.08
2023-01-29T03:55:27.941Z,14.07
2023-01-29T03:57:58.979Z,14.07
2023-01-29T04:00:32.383Z,14.06
2023-01-29T04:03:21.609Z,14.07
2023-01-29T04:06:13.600Z,14.08
2023-01-29T04:09:08.087Z,14.09
2023-01-29T04:11:36.622Z,14.09
2023-01-29T04:14:03.260Z,14.10
2023-01-29T04:16:35.120Z,14.10
2023-01-29T04:19:01.769Z,14.12
2023-01-29T04:21:28.597Z,14.13
2023-01-29T04:23:55.482Z,14.12
2023-01-29T04:26:30.293Z,14.13
2023-01-29T04:29:16.309Z,14.12
2023-01-29T04:31:49.894Z,14.13
2023-01-29T04:34:23.624Z,14.13
2023-01-29T04:37:09.502Z,14.12
2023-01-29T04:39:50.099Z,14.11
2023-01-29T04:42:37.699Z,14.11
2023-01-29T04:45:18.741Z,14.09
2023-01-29T04:47:48.306Z,14.09
2023-01-29T04:50:38.659Z,14.08
2023-01-29T04:53:39.555Z,14.09
2023-01-29T04:56:12.420Z,14.07
2023-01-29T04:58:45.027Z,14.06
2023-01-29T05:01:14.607Z,14.05
2023-01-29T05:03:43.369Z,14.04
2023-01-29T05:06:11.015Z,14.04
2023-01-29T05:08:38.880Z,14.04
2023-01-29T05:11:05.612Z,14.05
2023-01-29T05:13:33.379Z,14.07
2023-01-29T05:16:06.063Z,14.09
2023-01-29T05:18:32.892Z,14.09
2023-01-29T05:21:04.260Z,14.10
2023-01-29T05:23:30.978Z,14.12
2023-01-29T05:25:57.897Z,14.13
2023-01-29T05:28:24.439Z,14.14
2023-01-29T05:30:53.199Z,14.15
2023-01-29T05:33:20.956Z,14.14
2023-01-29T05:35:48.353Z,14.15
2023-01-29T05:38:15.381Z,14.12
2023-01-29T05:40:42.571Z,14.13
2023-01-29T05:43:20.708Z,14.14
2023-01-29T05:45:58.050Z,14.12
2023-01-29T05:48:25.216Z,14.10
2023-01-29T05:50:52.122Z,14.11
2023-01-29T05:53:18.854Z,14.09
2023-01-29T05:55:49.051Z,14.10
2023-01-29T05:58:15.615Z,14.09
2023-01-29T06:00:42.403Z,14.08
2023-01-29T06:03:09.037Z,14.08
2023-01-29T06:05:38.627Z,14.07
2023-01-29T06:08:06.814Z,14.06
2023-01-29T06:10:33.362Z,14.06
2023-01-29T06:12:59.920Z,14.07
2023-01-29T06:15:26.692Z,14.06
2023-01-29T06:17:57.199Z,14.05
2023-01-29T06:20:24.201Z,14.06
2023-01-29T06:22:50.812Z,14.05
2023-01-29T06:25:17.378Z,14.07
2023-01-29T06:27:43.947Z,14.08
2023-01-29T06:30:11.060Z,14.08
2023-01-29T06:32:37.694Z,14.10
2023-01-29T06:35:04.667Z,14.10
2023-01-29T06:37:31.205Z,14.10
2023-01-29T06:39:57.806Z,14.10
2023-01-29T06:42:27.849Z,14.13
2023-01-29T06:44:55.828Z,14.13
2023-01-29T06:47:23.272Z,14.13
2023-01-29T06:49:50.298Z,14.12
2023-01-29T06:52:16.877Z,14.12
2023-01-29T06:54:43.415Z,14.11
2023-01-29T06:57:09.976Z,14.08
2023-01-29T06:59:36.532Z,14.08
2023-01-29T07:02:03.928Z,14.09
2023-01-29T07:04:30.652Z,14.08
2023-01-29T07:06:57.189Z,14.08
2023-01-29T07:09:23.776Z,14.07
2023-01-29T07:11:50.457Z,14.08
2023-01-29T07:14:17.055Z,14.07
2023-01-29T07:16:43.649Z,14.07
2023-01-29T07:19:10.261Z,14.06
2023-01-29T07:21:37.301Z,14.06
2023-01-29T07:24:04.065Z,14.05
2023-01-29T07:26:30.653Z,14.04
2023-01-29T07:28:57.219Z,14.06
2023-01-29T07:31:23.903Z,14.06
2023-01-29T07:33:50.492Z,14.08
2023-01-29T07:36:17.052Z,14.08
2023-01-29T07:38:43.607Z,14.08
2023-01-29T07:41:11.626Z,14.10
2023-01-29T07:43:38.194Z,14.09
2023-01-29T07:46:05.184Z,14.12
2023-01-29T07:48:31.790Z,14.12
2023-01-29T07:50:59.039Z,14.12
2023-01-29T07:53:26.747Z,14.13
2023-01-29T07:55:53.386Z,14.11
2023-01-29T07:58:19.965Z,14.11
2023-01-29T08:00:46.692Z,14.10
2023-01-29T08:03:18.372Z,14.11
2023-01-29T08:05:45.191Z,14.09
2023-01-29T08:08:12.053Z,14.10
2023-01-29T08:10:39.715Z,14.10
2023-01-29T08:13:07.120Z,14.09
2023-01-29T08:15:36.000Z,14.08
2023-01-29T08:18:03.973Z,14.08
2023-01-29T08:20:30.528Z,14.06
2023-01-29T08:23:07.853Z,14.06
2023-01-29T08:25:35.832Z,14.06
2023-01-29T08:28:02.482Z,14.06
2023-01-29T08:30:31.175Z,14.05
2023-01-29T08:32:57.942Z,14.04
2023-01-29T08:35:24.730Z,14.04
2023-01-29T08:37:55.176Z,14.04
2023-01-29T08:40:22.388Z,14.05
2023-01-29T08:42:48.987Z,14.05
2023-01-29T08:45:15.708Z,14.05
2023-01-29T08:47:47.090Z,14.07
2023-01-29T08:50:13.746Z,14.05
2023-01-29T08:52:40.343Z,14.05
2023-01-29T08:55:07.299Z,14.08
2023-01-29T08:57:33.857Z,14.09
2023-01-29T09:00:00.425Z,14.10
2023-01-29T09:02:27.172Z,14.12
2023-01-29T09:04:53.737Z,14.13
2023-01-29T09:07:21.837Z,14.13
2023-01-29T09:09:48.431Z,14.13
2023-01-29T09:12:14.970Z,14.12
2023-01-29T09:14:41.613Z,14.13
2023-01-29T09:17:08.148Z,14.11
2023-01-29T09:19:34.679Z,14.13
2023-01-29T09:22:01.213Z,14.13
2023-01-29T09:24:27.776Z,14.13
2023-01-29T09:26:54.328Z,14.12
2023-01-29T09:29:21.011Z,14.10
2023-01-29T09:31:47.687Z,14.11
2023-01-29T09:34:14.490Z,14.09
2023-01-29T09:36:41.068Z,14.10
2023-01-29T09:39:07.645Z,14.07
2023-01-29T09:41:58.861Z,14.06
2023-01-29T09:44:49.703Z,14.06
2023-01-29T09:47:17.298Z,14.05
2023-01-29T09:49:47.560Z,14.05
2023-01-29T09:52:36.405Z,14.05
2023-01-29T09:55:10.248Z,14.06
2023-01-29T09:57:45.987Z,14.07
2023-01-29T10:00:19.315Z,14.08
2023-01-29T10:02:50.549Z,14.09
2023-01-29T10:05:22.902Z,14.10
2023-01-29T10:08:35.922Z,14.10
2023-01-29T10:11:49.747Z,14.12
2023-01-29T10:14:28.263Z,14.13
2023-01-29T10:17:04.452Z,14.14
2023-01-29T10:19:49.199Z,14.14
2023-01-29T10:22:39.499Z,14.15
2023-01-29T10:25:10.901Z,14.13
2023-01-29T10:27:47.652Z,14.14
2023-01-29T10:30:37.257Z,14.14
2023-01-29T10:33:05.921Z,14.13
2023-01-29T10:35:44.244Z,14.13
2023-01-29T10:38:38.656Z,14.14
2023-01-29T10:41:11.210Z,14.15
2023-01-29T10:43:57.953Z,14.14
2023-01-29T10:46:41.392Z,14.14
2023-01-29T10:49:18.832Z,14.14
2023-01-29T10:52:22.767Z,14.10
2023-01-29T10:54:49.283Z,14.11
2023-01-29T10:57:40.482Z,14.11
2023-01-29T11:00:22.244Z,14.10
2023-01-29T11:02:50.796Z,14.12
2023-01-29T11:05:26.847Z,14.13
2023-01-29T11:08:02.670Z,14.14
2023-01-29T11:10:32.713Z,14.17
2023-01-29T11:12:59.773Z,14.19
2023-01-29T11:15:30.847Z,14.21
2023-01-29T11:18:13.220Z,14.21
2023-01-29T11:20:44.304Z,14.22
2023-01-29T11:23:28.832Z,14.21
2023-01-29T11:25:57.688Z,14.23
2023-01-29T11:28:42.317Z,14.25
2023-01-29T11:31:19.113Z,14.24
2023-01-29T11:33:46.232Z,14.24
2023-01-29T11:36:39.945Z,14.24
2023-01-29T11:39:12.087Z,14.22
2023-01-29T11:41:49.287Z,14.22
2023-01-29T11:44:39.647Z,14.20
2023-01-29T11:47:18.788Z,14.20
2023-01-29T11:49:50.694Z,14.21
2023-01-29T11:52:23.283Z,14.19
2023-01-29T11:54:58.374Z,14.19
2023-01-29T11:57:34.758Z,14.18
2023-01-29T12:00:20.433Z,14.17
2023-01-29T12:02:50.831Z,14.16
2023-01-29T12:05:22.732Z,14.16
2023-01-29T12:07:54.536Z,14.15
2023-01-29T12:10:36.036Z,14.15
2023-01-29T12:13:20.001Z,14.15
2023-01-29T12:15:47.435Z,14.14
2023-01-29T12:18:16.917Z,14.16
2023-01-29T12:21:04.046Z,14.16
2023-01-29T12:23:52.297Z,14.18
2023-01-29T12:26:27.910Z,14.18
2023-01-29T12:29:13.192Z,14.20
2023-01-29T12:31:45.789Z,14.21
2023-01-29T12:34:27.314Z,14.21
2023-01-29T12:36:59.330Z,14.20
2023-01-29T12:39:26.088Z,14.22
2023-01-29T12:42:01.595Z,14.22
2023-01-29T12:44:53.599Z,14.21
2023-01-29T12:47:29.181Z,14.21
2023-01-29T12:49:58.185Z,14.20
2023-01-29T12:52:44.238Z,14.19
2023-01-29T12:55:18.729Z,14.19
2023-01-29T12:58:00.402Z,14.19
2023-01-29T13:00:29.737Z,14.18
2023-01-29T13:03:04.934Z,14.18
2023-01-29T13:05:42.858Z,14.18
2023-01-29T13:08:32.041Z,14.17
2023-01-29T13:11:00.982Z,14.17
2023-01-29T13:13:31.744Z,14.16
2023-01-29T13:16:00.982Z,14.17
2023-01-29T13:18:46.789Z,14.15
2023-01-29T13:21:18.822Z,14.13
2023-01-29T13:23:48.281Z,14.14
2023-01-29T13:26:18.977Z,14.13
2023-01-29T13:28:46.306Z,14.13
2023-01-29T13:31:35.021Z,14.12
2023-01-29T13:34:25.715Z,14.14
2023-01-29T13:36:54.735Z,14.13
2023-01-29T13:39:27.791Z,14.14
2023-01-29T13:41:55.573Z,14.14
2023-01-29T13:44:39.190Z,14.15
2023-01-29T13:47:09.082Z,14.16
2023-01-29T13:49:41.729Z,14.17
2023-01-29T13:52:48.585Z,14.16
2023-01-29T13:55:15.528Z,14.15
2023-01-29T13:57:45.104Z,14.16
2023-01-29T14:00:20.604Z,14.17
2023-01-29T14:02:47.750Z,14.15
2023-01-29T14:05:29.678Z,14.14
2023-01-29T14:08:14.990Z,14.12
2023-01-29T14:10:42.803Z,14.13
2023-01-29T14:13:18.558Z,14.13
2023-01-29T14:15:48.689Z,14.11
2023-01-29T14:18:19.894Z,14.10
2023-01-29T14:21:04.562Z,14.10
2023-01-29T14:23:31.209Z,14.11
2023-01-29T14:26:01.187Z,14.10
2023-01-29T14:28:29.599Z,14.07
2023-01-29T14:30:56.513Z,14.07
2023-01-29T14:33:35.468Z,14.07
2023-01-29T14:36:12.859Z,14.06
2023-01-29T14:38:41.203Z,14.08
2023-01-29T14:41:27.989Z,14.07
2023-01-29T14:44:32.262Z,14.07
2023-01-29T14:46:58.913Z,14.09
2023-01-29T14:49:56.110Z,14.10
2023-01-29T14:52:36.060Z,14.13
2023-01-29T14:55:05.707Z,14.13
2023-01-29T14:57:32.416Z,14.14
2023-01-29T15:00:14.482Z,14.16
2023-01-29T15:02:43.981Z,14.16
2023-01-29T15:05:19.447Z,14.15
2023-01-29T15:08:00.606Z,14.16
2023-01-29T15:10:40.013Z,14.15
2023-01-29T15:13:17.692Z,14.16
2023-01-29T15:15:49.335Z,14.15
2023-01-29T15:18:19.812Z,14.16
2023-01-29T15:20:46.615Z,14.13
2023-01-29T15:23:29.636Z,14.12
2023-01-29T15:26:03.190Z,14.12
2023-01-29T15:28:33.631Z,14.11
2023-01-29T15:31:05.997Z,14.09
2023-01-29T15:33:33.693Z,14.09
2023-01-29T15:36:07.337Z,14.07
2023-01-29T15:38:34.812Z,14.07
2023-01-29T15:41:03.790Z,14.06
2023-01-29T15:43:35.389Z,14.05
2023-01-29T15:46:12.947Z,14.05
2023-01-29T15:48:41.871Z,14.04
2023-01-29T15:51:13.845Z,14.05
2023-01-29T15:53:48.509Z,14.04
2023-01-29T15:56:18.623Z,14.05
2023-01-29T15:58:48.744Z,14.05
2023-01-29T16:01:15.815Z,14.06
2023-01-29T16:03:42.782Z,14.08
2023-01-29T16:06:09.687Z,14.09
2023-01-29T16:08:36.786Z,14.10
2023-01-29T16:11:05.460Z,14.10
2023-01-29T16:13:34.738Z,14.12
2023-01-29T16:16:13.507Z,14.12
2023-01-29T16:18:58.797Z,14.12
2023-01-29T16:21:33.121Z,14.12
2023-01-29T16:24:03.106Z,14.13
2023-01-29T16:26:35.236Z,14.12
2023-01-29T16:29:13.491Z,14.12
2023-01-29T16:31:40.480Z,14.12
2023-01-29T16:34:10.178Z,14.11
2023-01-29T16:36:36.846Z,14.10
2023-01-29T16:39:06.178Z,14.09
2023-01-29T16:41:36.025Z,14.09
2023-01-29T16:44:17.850Z,14.07
2023-01-29T16:46:52.198Z,14.07
2023-01-29T16:49:30.956Z,14.06
2023-01-29T16:52:16.798Z,14.05
2023-01-29T16:54:43.557Z,14.04
2023-01-29T16:57:32.007Z,14.02
2023-01-29T17:00:01.410Z,14.04
2023-01-29T17:02:33.333Z,14.04
2023-01-29T17:05:06.871Z,14.06
2023-01-29T17:07:33.792Z,14.06
2023-01-29T17:10:03.537Z,14.07
2023-01-29T17:12:31.798Z,14.08
2023-01-29T17:15:01.248Z,14.09
2023-01-29T17:17:33.069Z,14.10
2023-01-29T17:20:12.626Z,14.09
2023-01-29T17:22:39.214Z,14.10
2023-01-29T17:25:06.011Z,14.08
2023-01-29T17:27:32.683Z,14.10
2023-01-29T17:29:59.472Z,14.10
2023-01-29T17:32:43.550Z,14.10
2023-01-29T17:35:16.642Z,14.10
2023-01-29T17:37:44.380Z,14.08
2023-01-29T17:40:17.243Z,14.10
2023-01-29T17:42:43.873Z,14.10
2023-01-29T17:45:10.856Z,14.09
2023-01-29T17:47:37.423Z,14.09
2023-01-29T17:50:18.043Z,14.09
2023-01-29T17:52:44.601Z,14.08
2023-01-29T17:55:11.157Z,14.07
2023-01-29T17:57:37.782Z,14.06
2023-01-29T18:00:13.715Z,14.06
2023-01-29T18:02:40.313Z,14.05
2023-01-29T18:05:07.331Z,14.05
2023-01-29T18:07:34.808Z,14.03
2023-01-29T18:10:01.437Z,14.03
2023-01-29T18:12:28.032Z,14.03
2023-01-29T18:14:54.584Z,14.04
2023-01-29T18:17:22.540Z,14.05
2023-01-29T18:19:49.572Z,14.05
2023-01-29T18:22:16.372Z,14.06
2023-01-29T18:24:42.948Z,14.06
2023-01-29T18:27:10.106Z,14.07
2023-01-29T18:29:36.799Z,14.07
2023-01-29T18:32:04.026Z,14.09
2023-01-29T18:34:30.559Z,14.09
2023-01-29T18:36:57.174Z,14.08
2023-01-29T18:39:23.990Z,14.10
2023-01-29T18:41:50.559Z,14.08
2023-01-29T18:44:17.202Z,14.09
2023-01-29T18:46:43.797Z,14.09
2023-01-29T18:49:10.856Z,14.08
2023-01-29T18:51:37.411Z,14.08
2023-01-29T18:54:04.157Z,14.08
2023-01-29T18:56:30.733Z,14.07
2023-01-29T18:58:57.285Z,14.08
2023-01-29T19:01:24.179Z,14.07
2023-01-29T19:03:50.879Z,14.07
2023-01-29T19:06:17.454Z,14.07
2023-01-29T19:08:44.134Z,14.07
2023-01-29T19:11:12.457Z,14.08
2023-01-29T19:13:39.084Z,14.06
2023-01-29T19:16:09.925Z,14.07
2023-01-29T19:18:36.855Z,14.07
2023-01-29T19:21:12.350Z,14.06
2023-01-29T19:23:39.291Z,14.06
2023-01-29T19:26:06.394Z,14.07
2023-01-29T19:28:33.081Z,14.07
2023-01-29T19:31:00.186Z,14.10
2023-01-29T19:33:30.701Z,14.10
2023-01-29T19:35:58.386Z,14.10
2023-01-29T19:38:25.117Z,14.13
2023-01-29T19:40:51.923Z,14.11
2023-01-29T19:43:19.010Z,14.11
2023-01-29T19:45:50.860Z,14.14
2023-01-29T19:48:21.730Z,14.14
2023-01-29T19:50:55.625Z,14.12
2023-01-29T19:53:23.063Z,14.13
2023-01-29T19:56:00.368Z,14.13
2023-01-29T19:58:27.219Z,14.13
2023-01-29T20:00:58.312Z,14.13
2023-01-29T20:03:25.907Z,14.13
2023-01-29T20:05:52.530Z,14.12
2023-01-29T20:08:19.406Z,14.11
2023-01-29T20:10:47.003Z,14.09
2023-01-29T20:13:14.533Z,14.10
2023-01-29T20:15:45.648Z,14.12
2023-01-29T20:18:13.568Z,14.08
2023-01-29T20:20:44.548Z,14.08
2023-01-29T20:23:12.088Z,14.06
2023-01-29T20:25:39.084Z,14.07
2023-01-29T20:28:07.549Z,14.07
2023-01-29T20:30:35.094Z,14.05
2023-01-29T20:33:02.804Z,14.05
2023-01-29T20:35:30.322Z,14.07
2023-01-29T20:37:57.441Z,14.08
2023-01-29T20:40:24.217Z,14.09
2023-01-29T20:42:51.051Z,14.10
2023-01-29T20:45:17.765Z,14.09
2023-01-29T20:47:44.327Z,14.12
2023-01-29T20:50:12.149Z,14.13
2023-01-29T20:52:40.134Z,14.13
2023-01-29T20:55:08.779Z,14.13
2023-01-29T20:57:36.069Z,14.14
2023-01-29T21:00:03.563Z,14.16
2023-01-29T21:02:30.185Z,14.15
2023-01-29T21:04:56.839Z,14.13
2023-01-29T21:07:23.432Z,14.15
2023-01-29T21:09:50.001Z,14.14
2023-01-29T21:12:16.559Z,14.14
2023-01-29T21:14:43.135Z,14.14
2023-01-29T21:17:09.719Z,14.12
2023-01-29T21:19:36.273Z,14.12
2023-01-29T21:22:02.813Z,14.12
2023-01-29T21:24:29.353Z,14.10
2023-01-29T21:26:55.961Z,14.12
2023-01-29T21:29:22.604Z,14.10
2023-01-29T21:31:49.206Z,14.09
2023-01-29T21:34:15.727Z,14.08
2023-01-29T21:36:42.304Z,14.07
2023-01-29T21:39:20.992Z,14.06
2023-01-29T21:42:07.661Z,14.06
2023-01-29T21:44:34.997Z,14.06
2023-01-29T21:47:02.009Z,14.07
2023-01-29T21:49:28.577Z,14.06
2023-01-29T21:51:55.178Z,14.08
2023-01-29T21:54:21.940Z,14.10
2023-01-29T21:56:48.483Z,14.10
2023-01-29T21:59:15.159Z,14.12
2023-01-29T22:01:41.788Z,14.12
2023-01-29T22:04:09.642Z,14.13
2023-01-29T22:06:36.199Z,14.14
2023-01-29T22:09:02.848Z,14.14
2023-01-29T22:11:29.514Z,14.13
2023-01-29T22:13:56.070Z,14.13
2023-01-29T22:16:22.632Z,14.13
2023-01-29T22:18:49.648Z,14.11
2023-01-29T22:21:16.237Z,14.13
2023-01-29T22:23:42.808Z,14.12
2023-01-29T22:26:10.389Z,14.10
2023-01-29T22:28:36.952Z,14.10
2023-01-29T22:31:04.842Z,14.09
2023-01-29T22:33:32.082Z,14.10
2023-01-29T22:35:58.667Z,14.10
2023-01-29T22:38:25.249Z,14.07
2023-01-29T22:40:55.831Z,14.07
2023-01-29T22:43:23.191Z,14.07
2023-01-29T22:45:49.770Z,14.06
2023-01-29T22:48:16.336Z,14.06
2023-01-29T22:50:42.983Z,14.06
2023-01-29T22:53:09.823Z,14.06
2023-01-29T22:55:36.348Z,14.06
2023-01-29T22:58:02.903Z,14.08
2023-01-29T23:00:29.457Z,14.08
2023-01-29T23:02:56.012Z,14.09
2023-01-29T23:05:22.615Z,14.09
2023-01-29T23:07:49.228Z,14.11
2023-01-29T23:10:16.603Z,14.13
2023-01-29T23:12:43.440Z,14.13
2023-01-29T23:15:10.089Z,14.13
2023-01-29T23:17:36.932Z,14.12
2023-01-29T23:20:03.794Z,14.15
2023-01-29T23:22:30.355Z,14.14
2023-01-29T23:24:56.921Z,14.14
2023-01-29T23:27:23.455Z,14.12
2023-01-29T23:29:50.040Z,14.13
2023-01-29T23:32:19.065Z,14.13
2023-01-29T23:34:45.645Z,14.12
2023-01-29T23:37:12.313Z,14.12
2023-01-29T23:39:38.899Z,14.08
2023-01-29T23:42:05.827Z,14.10
2023-01-29T23:44:32.434Z,14.09
2023-01-29T23:46:59.271Z,14.07
2023-01-29T23:49:25.942Z,14.08
2023-01-29T23:51:52.601Z,14.06
2023-01-29T23:54:19.239Z,14.05
2023-01-29T23:56:45.869Z,14.06
2023-01-29T23:59:12.720Z,14.06
